ěÝzenÝ letovÚho provozu ╚eskÚ republiky
Letiste: LKBC Aktualizace: 17.04.2021 19:25:24  UTC
 METAR LKBC 17.04. 19:30 ...
METAR LKBC 171930Z AUTO VRB02KT 9999 -RA OVC014 03/01 Q1020=